Loodiep — A8ZO7 — position and weather

sailwx.info

Track history (hours):
 
Tides and Currents Weather Stations Pressure Air Temp Water Temp Dewpoint Dewpoint Depression Visibility Wind Speed Wind Dir Waves Ship Positions

Loodiep

Last reported at 2016-Jul-26 02:30 UTC. Time now 2016-Jul-27 23:02 UTC.
Position N 43°47' W 006°13'.

Length 108 m; draft 4.4 m.

Type: Cargo ship. MMSI: 636015263.

Date/timePositionNaut miles runAvg speedWind from/ knotsBaromVisibWave heightAir tempDewpointWater temp
2016-Jul-26 02:30N 43°47' W 006°13'1411.5
2016-Jul-26 01:19N 43°46' W 005°54'1011.7
2016-Jul-26 00:30N 43°45' W 005°41'1611.2
2016-Jul-25 23:05N 43°44' W 005°19'611.2
2016-Jul-25 22:31N 43°44' W 005°10'14711.1
2016-Jul-25 09:18N 43°33' W 001°47'1010.4
2016-Jul-25 08:18N 43°36' W 001°34'1 1.0
2016-Jul-25 07:31N 43°35' W 001°33'0 0.1
2016-Jul-25 06:31N 43°35' W 001°33'0 0.1
2016-Jul-25 05:28N 43°35' W 001°33'0 0.0
2016-Jul-25 03:25N 43°35' W 001°33'0 0.0
2016-Jul-25 02:25N 43°35' W 001°33'0 0.0
2016-Jul-25 01:28N 43°35' W 001°33'0 0.0
2016-Jul-25 00:28N 43°35' W 001°33'0 0.0
2016-Jul-24 23:28N 43°35' W 001°33'0 0.0
2016-Jul-24 22:28N 43°35' W 001°33'0 0.0
2016-Jul-24 10:28N 43°35' W 001°33'0 0.0
2016-Jul-24 09:07N 43°35' W 001°33'0 0.0
2016-Jul-24 08:31N 43°35' W 001°33'0 0.0
2016-Jul-24 07:10N 43°35' W 001°33'0 0.0
2016-Jul-24 06:31N 43°35' W 001°33'0 0.0
2016-Jul-24 05:31N 43°35' W 001°33'0 0.1
2016-Jul-24 04:31N 43°35' W 001°33'0 0.0
2016-Jul-24 03:10N 43°35' W 001°33'0 0.0
2016-Jul-24 02:31N 43°35' W 001°33'0 0.0
2016-Jul-24 01:31N 43°35' W 001°33'0 0.0
2016-Jul-24 00:31N 43°35' W 001°33'0 0.0
2016-Jul-23 23:31N 43°35' W 001°33'0 0.0
2016-Jul-23 22:19N 43°35' W 001°33'0 0.0
2016-Jul-23 21:25N 43°35' W 001°33'0 0.0
2016-Jul-23 20:25N 43°35' W 001°33'0 0.0
2016-Jul-23 19:31N 43°35' W 001°33'0 0.0
2016-Jul-23 18:28N 43°35' W 001°33'0 0.0
2016-Jul-23 17:28N 43°35' W 001°33'0 0.0
2016-Jul-23 16:16N 43°35' W 001°33'0 0.0
2016-Jul-23 15:31N 43°35' W 001°33'0 0.0
2016-Jul-23 14:31N 43°35' W 001°33'0 0.0
2016-Jul-23 13:25N 43°35' W 001°33'0 0.0
2016-Jul-23 11:25N 43°35' W 001°33'0 0.0
2016-Jul-23 10:31N 43°35' W 001°33'0 0.0
2016-Jul-23 09:31N 43°35' W 001°33'0 0.0
2016-Jul-23 08:31N 43°35' W 001°33'0 0.0
2016-Jul-23 07:31N 43°35' W 001°33'0 0.0
2016-Jul-23 06:28N 43°35' W 001°33'0 0.0
2016-Jul-23 04:25N 43°35' W 001°33'0 0.0
2016-Jul-23 02:16N 43°35' W 001°33'0 0.0
2016-Jul-23 01:31N 43°35' W 001°33'0 0.0
2016-Jul-23 00:31N 43°35' W 001°33'0 0.0
2016-Jul-22 23:31N 43°35' W 001°33'0 0.0
2016-Jul-22 20:25N 43°35' W 001°33'0 0.0
2016-Jul-22 19:31N 43°35' W 001°33'0 0.0
2016-Jul-22 18:31N 43°35' W 001°33'0 0.0
2016-Jul-22 17:31N 43°35' W 001°33'0 0.0
2016-Jul-22 16:28N 43°35' W 001°33'0 0.0
2016-Jul-22 15:25N 43°35' W 001°33'0 0.0
2016-Jul-22 14:31N 43°35' W 001°33'0 0.0
2016-Jul-22 13:31N 43°35' W 001°33'0 0.0
2016-Jul-22 12:28N 43°35' W 001°33'0 0.0
2016-Jul-22 11:22N 43°35' W 001°33'0 0.0
2016-Jul-22 10:31N 43°35' W 001°33'0 0.0
2016-Jul-22 09:31N 43°35' W 001°33'0 0.0
2016-Jul-22 08:31N 43°35' W 001°33'0 0.0
2016-Jul-22 07:25N 43°35' W 001°33'3 0.9
2016-Jul-22 04:33N 43°33' W 001°32'2 0.0
2016-Jul-20 04:29N 43°32' W 001°31'3 3.3
2016-Jul-20 03:31N 43°33' W 001°34'0 0.0
2016-Jul-20 02:31N 43°33' W 001°34'0 0.0
2016-Jul-20 01:31N 43°33' W 001°34'0 0.1
2016-Jul-19 23:28N 43°34' W 001°34'0 0.1
2016-Jul-19 22:28N 43°33' W 001°34'0 0.0
2016-Jul-19 21:32N 43°33' W 001°34'0 0.0
2016-Jul-19 20:32N 43°33' W 001°34'0 0.1
2016-Jul-19 19:32N 43°33' W 001°34'6 6.4
2016-Jul-19 18:33N 43°32' W 001°43'10 9.5
2016-Jul-19 17:33N 43°32' W 001°56'10 9.5
2016-Jul-19 16:33N 43°33' W 002°09'10 9.6
2016-Jul-19 15:33N 43°33' W 002°22'10 9.7
2016-Jul-19 14:33N 43°34' W 002°35'14 9.8
2016-Jul-19 13:08N 43°35' W 002°55'84 9.8
2016-Jul-19 04:33N 43°42' W 004°51'1110.0
2016-Jul-19 03:27N 43°43' W 005°06'9 9.9
2016-Jul-19 02:33N 43°44' W 005°18'10 9.8
2016-Jul-19 01:33N 43°45' W 005°32'10 9.9
2016-Jul-19 00:31N 43°46' W 005°46'290 7.2
2016-Jul-17 08:20N 39°60' W 009°50'8 9.6
2016-Jul-17 07:29N 39°51' W 009°50'11 9.5
2016-Jul-17 06:17N 39°40' W 009°51'16 9.5
2016-Jul-17 04:33N 39°24' W 009°51'9 9.2
2016-Jul-17 03:33N 39°14' W 009°52'9 9.2
2016-Jul-17 02:33N 39°05' W 009°51'9 9.2
2016-Jul-17 01:34N 38°56' W 009°51'9 9.2
2016-Jul-17 00:33N 38°47' W 009°50'9 9.4
2016-Jul-16 23:33N 38°38' W 009°49'9 9.0
2016-Jul-16 22:33N 38°29' W 009°47'9 8.7
2016-Jul-16 21:33N 38°20' W 009°43'9 8.8
2016-Jul-16 20:33N 38°12' W 009°41'9 9.0
2016-Jul-16 19:33N 38°03' W 009°38'9 9.5
2016-Jul-16 18:33N 37°54' W 009°36'10 9.7
2016-Jul-16 17:33N 37°44' W 009°33'9 9.2
2016-Jul-16 16:32N 37°35' W 009°31'9 9.1
2016-Jul-16 15:33N 37°26' W 009°28'9 9.4
2016-Jul-16 14:33N 37°17' W 009°26'  
Track history (hours):
 
Tides and Currents Weather Stations Pressure Air Temp Water Temp Dewpoint Dewpoint Depression Visibility Wind Speed Wind Dir Waves Ship Positions

Loodiep

Last reported at 2016-Jul-26 02:30 UTC. Time now 2016-Jul-27 23:02 UTC.
Position N 43°47' W 006°13'.

Length 108 m; draft 4.4 m.

Type: Cargo ship. MMSI: 636015263.

Date/timePositionNaut miles runAvg speedWind from/ knotsBaromVisibWave heightAir tempDewpointWater temp
2016-Jul-26 02:30N 43°47' W 006°13'1411.5
2016-Jul-26 01:19N 43°46' W 005°54'1011.7
2016-Jul-26 00:30N 43°45' W 005°41'1611.2
2016-Jul-25 23:05N 43°44' W 005°19'611.2
2016-Jul-25 22:31N 43°44' W 005°10'14711.1
2016-Jul-25 09:18N 43°33' W 001°47'1010.4
2016-Jul-25 08:18N 43°36' W 001°34'1 1.0
2016-Jul-25 07:31N 43°35' W 001°33'0 0.1
2016-Jul-25 06:31N 43°35' W 001°33'0 0.1
2016-Jul-25 05:28N 43°35' W 001°33'0 0.0
2016-Jul-25 03:25N 43°35' W 001°33'0 0.0
2016-Jul-25 02:25N 43°35' W 001°33'0 0.0
2016-Jul-25 01:28N 43°35' W 001°33'0 0.0
2016-Jul-25 00:28N 43°35' W 001°33'0 0.0
2016-Jul-24 23:28N 43°35' W 001°33'0 0.0
2016-Jul-24 22:28N 43°35' W 001°33'0 0.0
2016-Jul-24 10:28N 43°35' W 001°33'0 0.0
2016-Jul-24 09:07N 43°35' W 001°33'0 0.0
2016-Jul-24 08:31N 43°35' W 001°33'0 0.0
2016-Jul-24 07:10N 43°35' W 001°33'0 0.0
2016-Jul-24 06:31N 43°35' W 001°33'0 0.0
2016-Jul-24 05:31N 43°35' W 001°33'0 0.1
2016-Jul-24 04:31N 43°35' W 001°33'0 0.0
2016-Jul-24 03:10N 43°35' W 001°33'0 0.0
2016-Jul-24 02:31N 43°35' W 001°33'0 0.0
2016-Jul-24 01:31N 43°35' W 001°33'0 0.0
2016-Jul-24 00:31N 43°35' W 001°33'0 0.0
2016-Jul-23 23:31N 43°35' W 001°33'0 0.0
2016-Jul-23 22:19N 43°35' W 001°33'0 0.0
2016-Jul-23 21:25N 43°35' W 001°33'0 0.0
2016-Jul-23 20:25N 43°35' W 001°33'0 0.0
2016-Jul-23 19:31N 43°35' W 001°33'0 0.0
2016-Jul-23 18:28N 43°35' W 001°33'0 0.0
2016-Jul-23 17:28N 43°35' W 001°33'0 0.0
2016-Jul-23 16:16N 43°35' W 001°33'0 0.0
2016-Jul-23 15:31N 43°35' W 001°33'0 0.0
2016-Jul-23 14:31N 43°35' W 001°33'0 0.0
2016-Jul-23 13:25N 43°35' W 001°33'0 0.0
2016-Jul-23 11:25N 43°35' W 001°33'0 0.0
2016-Jul-23 10:31N 43°35' W 001°33'0 0.0
2016-Jul-23 09:31N 43°35' W 001°33'0 0.0
2016-Jul-23 08:31N 43°35' W 001°33'0 0.0
2016-Jul-23 07:31N 43°35' W 001°33'0 0.0
2016-Jul-23 06:28N 43°35' W 001°33'0 0.0
2016-Jul-23 04:25N 43°35' W 001°33'0 0.0
2016-Jul-23 02:16N 43°35' W 001°33'0 0.0
2016-Jul-23 01:31N 43°35' W 001°33'0 0.0
2016-Jul-23 00:31N 43°35' W 001°33'0 0.0
2016-Jul-22 23:31N 43°35' W 001°33'0 0.0
2016-Jul-22 20:25N 43°35' W 001°33'0 0.0
2016-Jul-22 19:31N 43°35' W 001°33'0 0.0
2016-Jul-22 18:31N 43°35' W 001°33'0 0.0
2016-Jul-22 17:31N 43°35' W 001°33'0 0.0
2016-Jul-22 16:28N 43°35' W 001°33'0 0.0
2016-Jul-22 15:25N 43°35' W 001°33'0 0.0
2016-Jul-22 14:31N 43°35' W 001°33'0 0.0
2016-Jul-22 13:31N 43°35' W 001°33'0 0.0
2016-Jul-22 12:28N 43°35' W 001°33'0 0.0
2016-Jul-22 11:22N 43°35' W 001°33'0 0.0
2016-Jul-22 10:31N 43°35' W 001°33'0 0.0
2016-Jul-22 09:31N 43°35' W 001°33'0 0.0
2016-Jul-22 08:31N 43°35' W 001°33'0 0.0
2016-Jul-22 07:25N 43°35' W 001°33'3 0.9
2016-Jul-22 04:33N 43°33' W 001°32'2 0.0
2016-Jul-20 04:29N 43°32' W 001°31'3 3.3
2016-Jul-20 03:31N 43°33' W 001°34'0 0.0
2016-Jul-20 02:31N 43°33' W 001°34'0 0.0
2016-Jul-20 01:31N 43°33' W 001°34'0 0.1
2016-Jul-19 23:28N 43°34' W 001°34'0 0.1
2016-Jul-19 22:28N 43°33' W 001°34'0 0.0
2016-Jul-19 21:32N 43°33' W 001°34'0 0.0
2016-Jul-19 20:32N 43°33' W 001°34'0 0.1
2016-Jul-19 19:32N 43°33' W 001°34'6 6.4
2016-Jul-19 18:33N 43°32' W 001°43'10 9.5
2016-Jul-19 17:33N 43°32' W 001°56'10 9.5
2016-Jul-19 16:33N 43°33' W 002°09'10 9.6
2016-Jul-19 15:33N 43°33' W 002°22'10 9.7
2016-Jul-19 14:33N 43°34' W 002°35'14 9.8
2016-Jul-19 13:08N 43°35' W 002°55'84 9.8
2016-Jul-19 04:33N 43°42' W 004°51'1110.0
2016-Jul-19 03:27N 43°43' W 005°06'9 9.9
2016-Jul-19 02:33N 43°44' W 005°18'10 9.8
2016-Jul-19 01:33N 43°45' W 005°32'10 9.9
2016-Jul-19 00:31N 43°46' W 005°46'290 7.2
2016-Jul-17 08:20N 39°60' W 009°50'8 9.6
2016-Jul-17 07:29N 39°51' W 009°50'11 9.5
2016-Jul-17 06:17N 39°40' W 009°51'16 9.5
2016-Jul-17 04:33N 39°24' W 009°51'9 9.2
2016-Jul-17 03:33N 39°14' W 009°52'9 9.2
2016-Jul-17 02:33N 39°05' W 009°51'9 9.2
2016-Jul-17 01:34N 38°56' W 009°51'9 9.2
2016-Jul-17 00:33N 38°47' W 009°50'9 9.4
2016-Jul-16 23:33N 38°38' W 009°49'9 9.0
2016-Jul-16 22:33N 38°29' W 009°47'9 8.7
2016-Jul-16 21:33N 38°20' W 009°43'9 8.8
2016-Jul-16 20:33N 38°12' W 009°41'9 9.0
2016-Jul-16 19:33N 38°03' W 009°38'9 9.5
2016-Jul-16 18:33N 37°54' W 009°36'10 9.7
2016-Jul-16 17:33N 37°44' W 009°33'9 9.2
2016-Jul-16 16:32N 37°35' W 009°31'9 9.1
2016-Jul-16 15:33N 37°26' W 009°28'9 9.4
2016-Jul-16 14:33N 37°17' W 009°26'  

Dump ship's entire track history